Friday, April 18, 2014, 2:10 PM EDT

KLKU, Louisa, Louisa County Airport/freeman Field

Location: Louisa, VA, United States Lat: 38.01
Local Time: 2:10 PM EDT (18:10 GMT) Lon: -77.97
Time Zone: US/Eastern Elev: 492 ft

Show me the last for .
Show Decoded

2014-04-18 13:55 METAR KLKU 181755Z AUTO 00000KT 10SM CLR 13/02 A3037 RMK AO2 =
2014-04-18 13:35 METAR KLKU 181735Z AUTO 04003KT 10SM CLR 13/02 A3039 RMK AO2 =
2014-04-18 13:15 METAR KLKU 181715Z AUTO 16004KT 10SM CLR 13/03 A3039 RMK AO2 =
2014-04-18 12:55 METAR KLKU 181655Z AUTO 30004KT 10SM CLR 12/03 A3040 RMK AO2 =
2014-04-18 12:35 METAR KLKU 181635Z AUTO 27003KT 10SM CLR 11/02 A3042 RMK AO2 =
2014-04-18 12:15 METAR KLKU 181615Z AUTO 29003KT 10SM CLR 11/02 A3043 RMK AO2 =
2014-04-18 11:55 METAR KLKU 181555Z AUTO 31003KT 10SM CLR 10/02 A3043 RMK AO2 =
2014-04-18 11:35 METAR KLKU 181535Z AUTO 36005KT 10SM CLR 09/02 A3045 RMK AO2 =
2014-04-18 11:15 METAR KLKU 181515Z AUTO 34004KT 10SM CLR 08/02 A3045 RMK AO2 =
2014-04-18 10:55 METAR KLKU 181455Z AUTO 05004KT 10SM SCT019 08/02 A3046 RMK AO2 =
2014-04-18 10:35 METAR KLKU 181435Z AUTO 04004KT 10SM SCT019 07/02 A3047 RMK AO2 =
2014-04-18 10:15 METAR KLKU 181415Z AUTO 36004KT 10SM CLR 06/02 A3046 RMK AO2 =
2014-04-18 09:55 METAR KLKU 181355Z AUTO 07004KT 10SM SCT015 06/02 A3047 RMK AO2 =
2014-04-18 09:35 METAR KLKU 181335Z AUTO 00000KT 10SM SCT015 05/01 A3047 RMK AO2 =
2014-04-18 09:15 METAR KLKU 181315Z AUTO 00000KT 10SM CLR 04/01 A3048 RMK AO2 =
2014-04-18 08:55 METAR KLKU 181255Z AUTO 06003KT 10SM CLR 04/01 A3048 RMK AO2 =
2014-04-18 08:35 METAR KLKU 181235Z AUTO 08003KT 10SM CLR 03/02 A3048 RMK AO2 =
2014-04-18 08:15 METAR KLKU 181215Z AUTO 00000KT 10SM CLR 03/02 A3047 RMK AO2 =
2014-04-18 07:55 METAR KLKU 181155Z AUTO 00000KT 10SM CLR 02/01 A3047 RMK AO2 =
2014-04-18 07:35 METAR KLKU 181135Z AUTO 04003KT 10SM CLR 02/01 A3046 RMK AO2 =
2014-04-18 07:15 METAR KLKU 181115Z AUTO 04003KT 10SM CLR 00/M01 A3046 RMK AO2 =
2014-04-18 06:55 METAR KLKU 181055Z AUTO 00000KT 3SM BR CLR M01/M02 A3046 RMK AO2 =
2014-04-18 06:35 METAR KLKU 181035Z AUTO 00000KT 7SM CLR M01/M02 A3046 RMK AO2 =
2014-04-18 06:15 METAR KLKU 181015Z AUTO 00000KT 7SM CLR M01/M02 A3046 RMK AO2 =
2014-04-18 05:55 METAR KLKU 180955Z AUTO 00000KT 5SM BR CLR M01/M02 A3047 RMK AO2 =
2014-04-18 05:35 METAR KLKU 180935Z AUTO 00000KT 7SM CLR M01/M02 A3048 RMK AO2 =
2014-04-18 05:15 METAR KLKU 180915Z AUTO 00000KT 7SM CLR M01/M02 A3047 RMK AO2 =
2014-04-18 04:55 METAR KLKU 180855Z AUTO 00000KT 7SM CLR M01/M01 A3047 RMK AO2 =
2014-04-18 04:35 METAR KLKU 180835Z AUTO 00000KT 7SM CLR M01/M02 A3047 RMK AO2 =
2014-04-18 04:15 METAR KLKU 180815Z AUTO 00000KT 7SM CLR M01/M01 A3047 RMK AO2 =
2014-04-18 03:55 METAR KLKU 180755Z AUTO 00000KT 7SM CLR 00/M01 A3047 RMK AO2 =
2014-04-18 03:35 METAR KLKU 180735Z AUTO 00000KT 10SM CLR 01/00 A3048 RMK AO2 =
2014-04-18 03:15 METAR KLKU 180715Z AUTO 00000KT 10SM CLR 00/M01 A3048 RMK AO2 =
2014-04-18 02:55 METAR KLKU 180655Z AUTO 00000KT 10SM CLR 00/M01 A3048 RMK AO2 =
2014-04-18 02:35 METAR KLKU 180635Z AUTO 00000KT 10SM CLR 01/M01 A3049 RMK AO2 =
2014-04-18 02:15 METAR KLKU 180615Z AUTO 07003KT 10SM CLR 01/00 A3049 RMK AO2 =
2014-04-18 01:55 METAR KLKU 180555Z AUTO 05003KT 10SM CLR 01/00 A3050 RMK AO2 =
2014-04-18 01:35 METAR KLKU 180535Z AUTO 00000KT 10SM CLR 02/01 A3050 RMK AO2 =
2014-04-18 01:15 METAR KLKU 180515Z AUTO 00000KT 10SM CLR 03/01 A3052 RMK AO2 =
2014-04-18 00:55 METAR KLKU 180455Z AUTO 09003KT 10SM CLR 04/01 A3052 RMK AO2 =
2014-04-18 00:35 METAR KLKU 180435Z AUTO 09003KT 10SM CLR 03/01 A3053 RMK AO2 =
2014-04-18 00:15 METAR KLKU 180415Z AUTO 00000KT 10SM CLR 04/01 A3053 RMK AO2 =
2014-04-17 23:55 METAR KLKU 180355Z AUTO 08005KT 10SM CLR 05/01 A3053 RMK AO2 =
2014-04-17 23:35 METAR KLKU 180335Z AUTO 08004KT 10SM CLR 05/01 A3053 RMK AO2 =
2014-04-17 23:15 METAR KLKU 180315Z AUTO 09003KT 10SM CLR 06/01 A3054 RMK AO2 =
2014-04-17 22:55 METAR KLKU 180255Z AUTO 10004KT 10SM CLR 06/01 A3054 RMK AO2 =
2014-04-17 22:35 METAR KLKU 180235Z AUTO 11005KT 10SM CLR 06/01 A3054 RMK AO2 =
2014-04-17 22:15 METAR KLKU 180215Z AUTO 10005KT 10SM CLR 07/01 A3053 RMK AO2 =
2014-04-17 21:55 METAR KLKU 180155Z AUTO 11004KT 10SM CLR 07/01 A3052 RMK AO2 =
2014-04-17 21:35 METAR KLKU 180135Z AUTO 10005KT 10SM CLR 07/00 A3052 RMK AO2 =
2014-04-17 21:15 METAR KLKU 180115Z AUTO 10004KT 10SM CLR 08/01 A3051 RMK AO2 =
2014-04-17 20:55 METAR KLKU 180055Z AUTO 10005KT 10SM CLR 08/01 A3051 RMK AO2 =
2014-04-17 20:35 METAR KLKU 180035Z AUTO 09005KT 10SM CLR 09/01 A3050 RMK AO2 =
2014-04-17 20:15 METAR KLKU 180015Z AUTO 08005KT 10SM CLR 09/01 A3049 RMK AO2 =
2014-04-17 19:55 METAR KLKU 172355Z AUTO 09005KT 10SM CLR 10/01 A3050 RMK AO2 =
2014-04-17 19:35 METAR KLKU 172335Z AUTO 08006KT 10SM CLR 11/01 A3049 RMK AO2 =
2014-04-17 19:15 METAR KLKU 172315Z AUTO 08006KT 10SM CLR 12/01 A3049 RMK AO2 =
2014-04-17 18:55 METAR KLKU 172255Z AUTO 08006KT 10SM CLR 12/01 A3049 RMK AO2 =
2014-04-17 18:35 METAR KLKU 172235Z AUTO 07008KT 10SM CLR 13/00 A3050 RMK AO2 =
2014-04-17 17:55 METAR KLKU 172155Z AUTO 09007KT 060V120 10SM CLR 14/00 A3049 RMK AO2 =
2014-04-17 17:35 METAR KLKU 172135Z AUTO 08008KT 10SM CLR 14/M01 A3050 RMK AO2 =
2014-04-17 17:15 METAR KLKU 172115Z AUTO 10006KT 10SM CLR 15/M01 A3049 RMK AO2 =
2014-04-17 16:55 METAR KLKU 172055Z AUTO 08007KT 10SM CLR 14/M01 A3050 RMK AO2 =
2014-04-17 16:35 METAR KLKU 172035Z AUTO 08006KT 10SM CLR 14/M01 A3049 RMK AO2 =
2014-04-17 16:15 METAR KLKU 172015Z AUTO 09004KT 10SM CLR 14/M01 A3050 RMK AO2 =
2014-04-17 15:55 METAR KLKU 171955Z AUTO 10007G14KT 10SM CLR 14/M01 A3050 RMK AO2 =
2014-04-17 15:35 METAR KLKU 171935Z AUTO 09005KT 10SM CLR 14/M01 A3051 RMK AO2 =
2014-04-17 15:15 METAR KLKU 171915Z AUTO 00000KT 10SM CLR 13/M02 A3052 RMK AO2 =
2014-04-17 14:55 METAR KLKU 171855Z AUTO 00000KT 10SM CLR 14/M01 A3053 RMK AO2 =
2014-04-17 14:35 METAR KLKU 171835Z AUTO 11005KT 10SM CLR 14/M01 A3054 RMK AO2 =
2014-04-17 14:15 METAR KLKU 171815Z AUTO 12003KT 10SM CLR 12/M03 A3055 RMK AO2 =

Support USWX by starting your Amazon purchase here.